sensor_id;sensor_type;location;lat;lon;timestamp;temperature;humidity
64198;SHT31;50512;53.666;9.700;2023-11-22T00:02:18;2.83;99.44
64198;SHT31;50512;53.666;9.700;2023-11-22T00:04:45;2.37;99.00
64198;SHT31;50512;53.666;9.700;2023-11-22T00:07:12;1.97;99.99
64198;SHT31;50512;53.666;9.700;2023-11-22T00:09:38;1.84;99.99
64198;SHT31;50512;53.666;9.700;2023-11-22T00:12:05;1.82;99.99
64198;SHT31;50512;53.666;9.700;2023-11-22T00:14:33;1.91;99.99
64198;SHT31;50512;53.666;9.700;2023-11-22T00:17:00;1.95;99.99
64198;SHT31;50512;53.666;9.700;2023-11-22T00:19:27;1.87;99.99
64198;SHT31;50512;53.666;9.700;2023-11-22T00:21:53;1.66;99.99
64198;SHT31;50512;53.666;9.700;2023-11-22T00:24:20;1.53;99.99
64198;SHT31;50512;53.666;9.700;2023-11-22T00:26:46;1.57;99.99
64198;SHT31;50512;53.666;9.700;2023-11-22T00:29:13;1.57;99.99
64198;SHT31;50512;53.666;9.700;2023-11-22T00:31:41;1.35;99.99
64198;SHT31;50512;53.666;9.700;2023-11-22T00:34:08;1.26;99.99
64198;SHT31;50512;53.666;9.700;2023-11-22T00:36:34;1.49;99.99
64198;SHT31;50512;53.666;9.700;2023-11-22T00:39:02;1.63;99.99
64198;SHT31;50512;53.666;9.700;2023-11-22T00:41:30;1.63;99.99
64198;SHT31;50512;53.666;9.700;2023-11-22T00:43:56;1.53;99.99
64198;SHT31;50512;53.666;9.700;2023-11-22T00:46:23;1.47;99.99
64198;SHT31;50512;53.666;9.700;2023-11-22T00:48:51;1.54;99.99
64198;SHT31;50512;53.666;9.700;2023-11-22T00:51:17;1.61;99.99
64198;SHT31;50512;53.666;9.700;2023-11-22T00:53:44;1.61;99.99
64198;SHT31;50512;53.666;9.700;2023-11-22T00:56:11;1.66;99.99
64198;SHT31;50512;53.666;9.700;2023-11-22T00:58:37;1.71;99.99
64198;SHT31;50512;53.666;9.700;2023-11-22T01:01:04;1.63;99.99
64198;SHT31;50512;53.666;9.700;2023-11-22T01:03:30;1.30;99.99
64198;SHT31;50512;53.666;9.700;2023-11-22T01:05:58;1.11;99.99
64198;SHT31;50512;53.666;9.700;2023-11-22T01:08:25;0.89;99.99
64198;SHT31;50512;53.666;9.700;2023-11-22T01:10:51;0.88;99.99
64198;SHT31;50512;53.666;9.700;2023-11-22T01:13:17;0.81;99.99
64198;SHT31;50512;53.666;9.700;2023-11-22T01:15:44;0.68;99.99
64198;SHT31;50512;53.666;9.700;2023-11-22T01:18:12;0.71;99.99
64198;SHT31;50512;53.666;9.700;2023-11-22T01:20:38;0.71;99.99
64198;SHT31;50512;53.666;9.700;2023-11-22T01:23:06;0.73;99.99
64198;SHT31;50512;53.666;9.700;2023-11-22T01:25:33;0.75;99.99
64198;SHT31;50512;53.666;9.700;2023-11-22T01:27:59;0.66;99.99
64198;SHT31;50512;53.666;9.700;2023-11-22T01:30:26;0.47;99.99
64198;SHT31;50512;53.666;9.700;2023-11-22T01:32:53;0.35;99.99
64198;SHT31;50512;53.666;9.700;2023-11-22T01:35:20;0.28;99.99
64198;SHT31;50512;53.666;9.700;2023-11-22T01:37:46;0.42;99.99
64198;SHT31;50512;53.666;9.700;2023-11-22T01:40:16;0.53;99.99
64198;SHT31;50512;53.666;9.700;2023-11-22T01:42:44;0.67;99.99
64198;SHT31;50512;53.666;9.700;2023-11-22T01:45:12;0.66;99.99
64198;SHT31;50512;53.666;9.700;2023-11-22T01:47:39;0.73;99.99
64198;SHT31;50512;53.666;9.700;2023-11-22T01:50:06;0.67;99.99
64198;SHT31;50512;53.666;9.700;2023-11-22T01:52:34;0.57;99.99
64198;SHT31;50512;53.666;9.700;2023-11-22T01:55:01;0.49;99.99
64198;SHT31;50512;53.666;9.700;2023-11-22T01:57:31;0.29;99.99
64198;SHT31;50512;53.666;9.700;2023-11-22T01:59:59;0.32;99.99
64198;SHT31;50512;53.666;9.700;2023-11-22T02:02:26;0.36;99.99
64198;SHT31;50512;53.666;9.700;2023-11-22T02:04:53;0.28;99.99
64198;SHT31;50512;53.666;9.700;2023-11-22T02:07:19;0.22;99.99
64198;SHT31;50512;53.666;9.700;2023-11-22T02:09:46;0.12;99.99
64198;SHT31;50512;53.666;9.700;2023-11-22T02:12:12;0.30;99.99
64198;SHT31;50512;53.666;9.700;2023-11-22T02:14:40;0.39;99.99
64198;SHT31;50512;53.666;9.700;2023-11-22T02:17:07;0.28;99.99
64198;SHT31;50512;53.666;9.700;2023-11-22T02:19:33;0.37;99.99
64198;SHT31;50512;53.666;9.700;2023-11-22T02:22:02;0.47;99.99
64198;SHT31;50512;53.666;9.700;2023-11-22T02:24:30;0.43;99.99
64198;SHT31;50512;53.666;9.700;2023-11-22T02:26:58;0.46;99.99
64198;SHT31;50512;53.666;9.700;2023-11-22T02:29:24;0.47;99.99
64198;SHT31;50512;53.666;9.700;2023-11-22T02:31:51;0.40;99.99
64198;SHT31;50512;53.666;9.700;2023-11-22T02:34:18;-0.05;99.99
64198;SHT31;50512;53.666;9.700;2023-11-22T02:36:44;-0.18;99.99
64198;SHT31;50512;53.666;9.700;2023-11-22T02:39:11;-0.13;99.99
64198;SHT31;50512;53.666;9.700;2023-11-22T02:41:40;-0.20;99.99
64198;SHT31;50512;53.666;9.700;2023-11-22T02:44:06;-0.26;99.99
64198;SHT31;50512;53.666;9.700;2023-11-22T02:46:33;-0.26;99.99
64198;SHT31;50512;53.666;9.700;2023-11-22T02:48:59;-0.25;99.99
64198;SHT31;50512;53.666;9.700;2023-11-22T02:51:26;-0.33;99.99
64198;SHT31;50512;53.666;9.700;2023-11-22T02:53:53;-0.32;99.99
64198;SHT31;50512;53.666;9.700;2023-11-22T02:56:20;-0.36;99.99
64198;SHT31;50512;53.666;9.700;2023-11-22T02:58:48;-0.40;99.99
64198;SHT31;50512;53.666;9.700;2023-11-22T03:01:14;-0.32;99.99
64198;SHT31;50512;53.666;9.700;2023-11-22T03:03:40;-0.30;99.99
64198;SHT31;50512;53.666;9.700;2023-11-22T03:06:07;-0.33;99.99
64198;SHT31;50512;53.666;9.700;2023-11-22T03:08:34;-0.32;99.99
64198;SHT31;50512;53.666;9.700;2023-11-22T03:11:00;-0.33;99.99
64198;SHT31;50512;53.666;9.700;2023-11-22T03:13:27;-0.34;99.99
64198;SHT31;50512;53.666;9.700;2023-11-22T03:15:55;-0.40;99.99
64198;SHT31;50512;53.666;9.700;2023-11-22T03:18:22;-0.32;99.99
64198;SHT31;50512;53.666;9.700;2023-11-22T03:20:48;-0.27;99.99
64198;SHT31;50512;53.666;9.700;2023-11-22T03:23:19;-0.25;99.99
64198;SHT31;50512;53.666;9.700;2023-11-22T03:25:46;-0.23;99.99
64198;SHT31;50512;53.666;9.700;2023-11-22T03:28:12;-0.33;99.99
64198;SHT31;50512;53.666;9.700;2023-11-22T03:30:38;-0.30;99.99
64198;SHT31;50512;53.666;9.700;2023-11-22T03:33:07;-0.32;99.99
64198;SHT31;50512;53.666;9.700;2023-11-22T03:35:33;-0.13;99.99
64198;SHT31;50512;53.666;9.700;2023-11-22T03:37:59;-0.02;99.99
64198;SHT31;50512;53.666;9.700;2023-11-22T03:40:26;-0.16;99.99
64198;SHT31;50512;53.666;9.700;2023-11-22T03:42:52;-0.09;99.99
64198;SHT31;50512;53.666;9.700;2023-11-22T03:45:19;0.09;99.99
64198;SHT31;50512;53.666;9.700;2023-11-22T03:47:45;0.15;99.99
64198;SHT31;50512;53.666;9.700;2023-11-22T03:50:13;0.02;99.99
64198;SHT31;50512;53.666;9.700;2023-11-22T03:52:40;-0.10;99.99
64198;SHT31;50512;53.666;9.700;2023-11-22T03:55:07;0.05;99.99
64198;SHT31;50512;53.666;9.700;2023-11-22T03:57:33;0.16;99.99
64198;SHT31;50512;53.666;9.700;2023-11-22T04:00:00;0.25;99.99
64198;SHT31;50512;53.666;9.700;2023-11-22T04:02:26;0.32;99.99
64198;SHT31;50512;53.666;9.700;2023-11-22T04:04:54;0.30;99.99
64198;SHT31;50512;53.666;9.700;2023-11-22T04:07:22;0.05;99.99
64198;SHT31;50512;53.666;9.700;2023-11-22T04:09:48;-0.12;99.99
64198;SHT31;50512;53.666;9.700;2023-11-22T04:12:15;-0.41;99.99
64198;SHT31;50512;53.666;9.700;2023-11-22T04:14:41;-0.41;99.99
64198;SHT31;50512;53.666;9.700;2023-11-22T04:17:08;-0.36;99.99
64198;SHT31;50512;53.666;9.700;2023-11-22T04:19:34;-0.36;99.99
64198;SHT31;50512;53.666;9.700;2023-11-22T04:22:00;-0.61;99.99
64198;SHT31;50512;53.666;9.700;2023-11-22T04:24:28;-0.68;99.99
64198;SHT31;50512;53.666;9.700;2023-11-22T04:26:55;-0.60;99.99
64198;SHT31;50512;53.666;9.700;2023-11-22T04:29:21;-0.56;99.99
64198;SHT31;50512;53.666;9.700;2023-11-22T04:31:48;-0.58;99.99
64198;SHT31;50512;53.666;9.700;2023-11-22T04:34:14;-0.73;99.99
64198;SHT31;50512;53.666;9.700;2023-11-22T04:36:40;-0.74;99.99
64198;SHT31;50512;53.666;9.700;2023-11-22T04:39:07;-0.78;99.99
64198;SHT31;50512;53.666;9.700;2023-11-22T04:41:36;-0.80;99.99
64198;SHT31;50512;53.666;9.700;2023-11-22T04:44:03;-0.81;99.99
64198;SHT31;50512;53.666;9.700;2023-11-22T04:46:29;-0.74;99.99
64198;SHT31;50512;53.666;9.700;2023-11-22T04:48:56;-0.68;99.99
64198;SHT31;50512;53.666;9.700;2023-11-22T04:51:23;-0.68;99.99
64198;SHT31;50512;53.666;9.700;2023-11-22T04:53:51;-0.87;99.99
64198;SHT31;50512;53.666;9.700;2023-11-22T04:56:17;-0.78;99.99
64198;SHT31;50512;53.666;9.700;2023-11-22T04:58:45;-0.74;99.99
64198;SHT31;50512;53.666;9.700;2023-11-22T05:01:12;-0.53;99.99
64198;SHT31;50512;53.666;9.700;2023-11-22T05:03:38;-0.47;99.99
64198;SHT31;50512;53.666;9.700;2023-11-22T05:06:05;-0.49;99.99
64198;SHT31;50512;53.666;9.700;2023-11-22T05:08:32;-0.81;99.99
64198;SHT31;50512;53.666;9.700;2023-11-22T05:10:59;-0.95;99.99
64198;SHT31;50512;53.666;9.700;2023-11-22T05:13:26;-0.99;99.99
64198;SHT31;50512;53.666;9.700;2023-11-22T05:15:53;-1.05;99.99
64198;SHT31;50512;53.666;9.700;2023-11-22T05:18:20;-1.02;99.99
64198;SHT31;50512;53.666;9.700;2023-11-22T05:20:46;-0.92;99.99
64198;SHT31;50512;53.666;9.700;2023-11-22T05:23:14;-0.88;99.99
64198;SHT31;50512;53.666;9.700;2023-11-22T05:25:40;-0.95;99.99
64198;SHT31;50512;53.666;9.700;2023-11-22T05:28:07;-0.88;99.99
64198;SHT31;50512;53.666;9.700;2023-11-22T05:30:33;-0.78;99.99
64198;SHT31;50512;53.666;9.700;2023-11-22T05:33:01;-0.65;99.99
64198;SHT31;50512;53.666;9.700;2023-11-22T05:35:28;-0.61;99.99
64198;SHT31;50512;53.666;9.700;2023-11-22T05:37:54;-0.56;99.99
64198;SHT31;50512;53.666;9.700;2023-11-22T05:40:22;-0.78;99.99
64198;SHT31;50512;53.666;9.700;2023-11-22T05:42:48;-0.85;99.99
64198;SHT31;50512;53.666;9.700;2023-11-22T05:45:15;-0.95;99.99
64198;SHT31;50512;53.666;9.700;2023-11-22T05:47:41;-0.95;99.99
64198;SHT31;50512;53.666;9.700;2023-11-22T05:50:10;-0.96;99.99
64198;SHT31;50512;53.666;9.700;2023-11-22T05:52:36;-1.05;99.99
64198;SHT31;50512;53.666;9.700;2023-11-22T05:55:03;-0.95;99.99
64198;SHT31;50512;53.666;9.700;2023-11-22T05:57:30;-0.96;99.99
64198;SHT31;50512;53.666;9.700;2023-11-22T05:59:56;-0.93;99.99
64198;SHT31;50512;53.666;9.700;2023-11-22T06:02:23;-0.95;99.99
64198;SHT31;50512;53.666;9.700;2023-11-22T06:04:49;-1.08;99.99
64198;SHT31;50512;53.666;9.700;2023-11-22T06:07:17;-1.15;99.99
64198;SHT31;50512;53.666;9.700;2023-11-22T06:09:43;-0.95;99.99
64198;SHT31;50512;53.666;9.700;2023-11-22T06:12:10;-0.87;99.99
64198;SHT31;50512;53.666;9.700;2023-11-22T06:14:36;-0.89;99.99
64198;SHT31;50512;53.666;9.700;2023-11-22T06:17:03;-0.95;99.99
64198;SHT31;50512;53.666;9.700;2023-11-22T06:19:29;-0.93;99.99
64198;SHT31;50512;53.666;9.700;2023-11-22T06:21:56;-0.91;99.99
64198;SHT31;50512;53.666;9.700;2023-11-22T06:24:24;-0.96;99.99
64198;SHT31;50512;53.666;9.700;2023-11-22T06:26:51;-0.99;99.99
64198;SHT31;50512;53.666;9.700;2023-11-22T06:29:17;-1.02;99.99
64198;SHT31;50512;53.666;9.700;2023-11-22T06:31:44;-1.06;99.99
64198;SHT31;50512;53.666;9.700;2023-11-22T06:34:10;-1.06;99.99
64198;SHT31;50512;53.666;9.700;2023-11-22T06:36:37;-1.08;99.99
64198;SHT31;50512;53.666;9.700;2023-11-22T06:39:04;-1.06;99.99
64198;SHT31;50512;53.666;9.700;2023-11-22T06:41:32;-1.08;99.99
64198;SHT31;50512;53.666;9.700;2023-11-22T06:43:59;-0.95;99.99
64198;SHT31;50512;53.666;9.700;2023-11-22T06:46:25;-0.78;99.99
64198;SHT31;50512;53.666;9.700;2023-11-22T06:48:51;-0.70;99.99
64198;SHT31;50512;53.666;9.700;2023-11-22T06:51:18;-0.63;99.99
64198;SHT31;50512;53.666;9.700;2023-11-22T06:53:45;-0.75;99.99
64198;SHT31;50512;53.666;9.700;2023-11-22T06:56:11;-0.78;99.99
64198;SHT31;50512;53.666;9.700;2023-11-22T06:58:39;-0.80;99.99
64198;SHT31;50512;53.666;9.700;2023-11-22T07:01:05;-0.74;99.99
64198;SHT31;50512;53.666;9.700;2023-11-22T07:03:32;-0.54;99.99
64198;SHT31;50512;53.666;9.700;2023-11-22T07:05:58;-0.53;99.99
64198;SHT31;50512;53.666;9.700;2023-11-22T07:08:25;-0.38;99.99
64198;SHT31;50512;53.666;9.700;2023-11-22T07:10:53;-0.44;99.99
64198;SHT31;50512;53.666;9.700;2023-11-22T07:13:20;-0.46;99.99
64198;SHT31;50512;53.666;9.700;2023-11-22T07:15:48;-0.40;99.99
64198;SHT31;50512;53.666;9.700;2023-11-22T07:18:16;-0.40;99.99
64198;SHT31;50512;53.666;9.700;2023-11-22T07:20:42;-0.30;99.99
64198;SHT31;50512;53.666;9.700;2023-11-22T07:23:08;-0.13;99.99
64198;SHT31;50512;53.666;9.700;2023-11-22T07:25:38;-0.01;99.99
64198;SHT31;50512;53.666;9.700;2023-11-22T07:28:05;0.03;99.99
64198;SHT31;50512;53.666;9.700;2023-11-22T07:30:31;-0.13;99.99
64198;SHT31;50512;53.666;9.700;2023-11-22T07:33:00;-0.18;99.99
64198;SHT31;50512;53.666;9.700;2023-11-22T07:35:26;-0.05;99.99
64198;SHT31;50512;53.666;9.700;2023-11-22T07:37:53;-0.08;99.99
64198;SHT31;50512;53.666;9.700;2023-11-22T07:40:20;-0.08;99.99
64198;SHT31;50512;53.666;9.700;2023-11-22T07:42:47;-0.06;99.99
64198;SHT31;50512;53.666;9.700;2023-11-22T07:45:13;-0.06;99.99
64198;SHT31;50512;53.666;9.700;2023-11-22T07:47:41;0.01;99.99
64198;SHT31;50512;53.666;9.700;2023-11-22T07:50:10;0.13;99.99
64198;SHT31;50512;53.666;9.700;2023-11-22T07:52:37;0.15;99.99
64198;SHT31;50512;53.666;9.700;2023-11-22T07:55:06;0.13;99.99
64198;SHT31;50512;53.666;9.700;2023-11-22T07:57:33;0.08;99.99
64198;SHT31;50512;53.666;9.700;2023-11-22T07:59:59;0.05;99.99
64198;SHT31;50512;53.666;9.700;2023-11-22T08:02:29;0.11;99.99
64198;SHT31;50512;53.666;9.700;2023-11-22T08:04:56;0.29;99.99
64198;SHT31;50512;53.666;9.700;2023-11-22T08:07:23;0.28;99.99
64198;SHT31;50512;53.666;9.700;2023-11-22T08:09:51;0.29;99.99
64198;SHT31;50512;53.666;9.700;2023-11-22T08:12:18;0.28;99.99
64198;SHT31;50512;53.666;9.700;2023-11-22T08:14:44;0.30;99.99
64198;SHT31;50512;53.666;9.700;2023-11-22T08:17:11;0.28;99.99
64198;SHT31;50512;53.666;9.700;2023-11-22T08:19:39;0.33;99.99
64198;SHT31;50512;53.666;9.700;2023-11-22T08:22:06;0.36;99.99
64198;SHT31;50512;53.666;9.700;2023-11-22T08:24:34;0.35;99.99
64198;SHT31;50512;53.666;9.700;2023-11-22T08:27:01;0.37;99.99
64198;SHT31;50512;53.666;9.700;2023-11-22T08:29:28;0.43;99.99
64198;SHT31;50512;53.666;9.700;2023-11-22T08:31:54;0.47;99.99
64198;SHT31;50512;53.666;9.700;2023-11-22T08:34:22;0.54;99.99
64198;SHT31;50512;53.666;9.700;2023-11-22T08:36:48;0.68;99.99
64198;SHT31;50512;53.666;9.700;2023-11-22T08:39:15;0.70;99.99
64198;SHT31;50512;53.666;9.700;2023-11-22T08:41:42;0.64;99.99
64198;SHT31;50512;53.666;9.700;2023-11-22T08:44:09;0.64;99.99
64198;SHT31;50512;53.666;9.700;2023-11-22T08:46:35;0.67;99.99
64198;SHT31;50512;53.666;9.700;2023-11-22T08:49:02;0.67;99.99
64198;SHT31;50512;53.666;9.700;2023-11-22T08:51:29;0.68;99.99
64198;SHT31;50512;53.666;9.700;2023-11-22T08:53:55;0.68;99.99
64198;SHT31;50512;53.666;9.700;2023-11-22T08:56:21;0.87;99.99
64198;SHT31;50512;53.666;9.700;2023-11-22T08:58:49;1.06;99.99
64198;SHT31;50512;53.666;9.700;2023-11-22T09:01:16;1.16;99.99
64198;SHT31;50512;53.666;9.700;2023-11-22T09:03:43;1.06;99.99
64198;SHT31;50512;53.666;9.700;2023-11-22T09:06:10;1.08;99.99
64198;SHT31;50512;53.666;9.700;2023-11-22T09:08:36;1.03;99.99
64198;SHT31;50512;53.666;9.700;2023-11-22T09:11:03;1.15;99.99
64198;SHT31;50512;53.666;9.700;2023-11-22T09:13:31;1.15;99.99
64198;SHT31;50512;53.666;9.700;2023-11-22T09:15:59;1.09;99.99
64198;SHT31;50512;53.666;9.700;2023-11-22T09:18:25;1.25;99.99
64198;SHT31;50512;53.666;9.700;2023-11-22T09:20:52;1.25;99.99
64198;SHT31;50512;53.666;9.700;2023-11-22T09:23:19;1.29;99.99
64198;SHT31;50512;53.666;9.700;2023-11-22T09:25:45;1.36;99.99
64198;SHT31;50512;53.666;9.700;2023-11-22T09:28:11;1.42;99.99
64198;SHT31;50512;53.666;9.700;2023-11-22T09:30:41;1.51;99.99
64198;SHT31;50512;53.666;9.700;2023-11-22T09:33:10;1.51;99.99
64198;SHT31;50512;53.666;9.700;2023-11-22T09:35:38;1.46;99.99
64198;SHT31;50512;53.666;9.700;2023-11-22T09:38:06;1.51;99.99
64198;SHT31;50512;53.666;9.700;2023-11-22T09:40:35;1.54;99.99
64198;SHT31;50512;53.666;9.700;2023-11-22T09:43:02;1.58;99.99
64198;SHT31;50512;53.666;9.700;2023-11-22T09:45:29;1.70;99.99
64198;SHT31;50512;53.666;9.700;2023-11-22T09:47:56;1.73;99.99
64198;SHT31;50512;53.666;9.700;2023-11-22T09:50:30;1.67;99.99
64198;SHT31;50512;53.666;9.700;2023-11-22T09:53:00;1.70;99.99
64198;SHT31;50512;53.666;9.700;2023-11-22T09:55:29;1.73;99.99
64198;SHT31;50512;53.666;9.700;2023-11-22T09:57:58;1.79;99.99
64198;SHT31;50512;53.666;9.700;2023-11-22T10:00:26;1.82;99.99
64198;SHT31;50512;53.666;9.700;2023-11-22T10:02:55;1.89;99.99
64198;SHT31;50512;53.666;9.700;2023-11-22T10:05:22;1.89;99.99
64198;SHT31;50512;53.666;9.700;2023-11-22T10:07:51;1.93;99.99
64198;SHT31;50512;53.666;9.700;2023-11-22T10:10:19;1.91;99.99
64198;SHT31;50512;53.666;9.700;2023-11-22T10:12:49;1.95;99.99
64198;SHT31;50512;53.666;9.700;2023-11-22T10:15:17;2.05;99.99
64198;SHT31;50512;53.666;9.700;2023-11-22T10:17:49;2.05;99.99
64198;SHT31;50512;53.666;9.700;2023-11-22T10:20:21;2.06;99.99
64198;SHT31;50512;53.666;9.700;2023-11-22T10:22:49;2.15;99.99
64198;SHT31;50512;53.666;9.700;2023-11-22T10:25:15;2.19;99.99
64198;SHT31;50512;53.666;9.700;2023-11-22T10:27:44;2.23;99.99
64198;SHT31;50512;53.666;9.700;2023-11-22T10:30:11;2.22;99.99
64198;SHT31;50512;53.666;9.700;2023-11-22T10:32:38;2.26;99.99
64198;SHT31;50512;53.666;9.700;2023-11-22T10:35:06;2.34;99.99
64198;SHT31;50512;53.666;9.700;2023-11-22T10:37:32;2.37;99.99
64198;SHT31;50512;53.666;9.700;2023-11-22T10:40:00;2.43;99.99
64198;SHT31;50512;53.666;9.700;2023-11-22T10:42:27;2.50;99.99
64198;SHT31;50512;53.666;9.700;2023-11-22T10:44:55;2.50;98.20
64198;SHT31;50512;53.666;9.700;2023-11-22T10:47:22;2.58;99.78
64198;SHT31;50512;53.666;9.700;2023-11-22T10:49:50;2.53;98.22
64198;SHT31;50512;53.666;9.700;2023-11-22T10:52:18;2.64;99.22
64198;SHT31;50512;53.666;9.700;2023-11-22T10:54:49;2.73;99.26
64198;SHT31;50512;53.666;9.700;2023-11-22T10:57:19;2.68;97.90
64198;SHT31;50512;53.666;9.700;2023-11-22T10:59:53;2.71;98.11
64198;SHT31;50512;53.666;9.700;2023-11-22T11:02:21;2.81;98.61
64198;SHT31;50512;53.666;9.700;2023-11-22T11:04:56;2.81;97.67
64198;SHT31;50512;53.666;9.700;2023-11-22T11:07:28;2.83;97.34
64198;SHT31;50512;53.666;9.700;2023-11-22T11:09:57;2.97;98.08
64198;SHT31;50512;53.666;9.700;2023-11-22T11:12:25;2.92;96.23
64198;SHT31;50512;53.666;9.700;2023-11-22T11:14:52;2.91;95.58
64198;SHT31;50512;53.666;9.700;2023-11-22T11:17:19;2.98;95.57
64198;SHT31;50512;53.666;9.700;2023-11-22T11:19:46;3.02;95.82
64198;SHT31;50512;53.666;9.700;2023-11-22T11:22:12;3.05;94.17
64198;SHT31;50512;53.666;9.700;2023-11-22T11:24:40;3.16;94.00
64198;SHT31;50512;53.666;9.700;2023-11-22T11:27:10;3.19;92.92
64198;SHT31;50512;53.666;9.700;2023-11-22T11:29:38;3.25;92.73
64198;SHT31;50512;53.666;9.700;2023-11-22T11:32:10;3.30;93.19
64198;SHT31;50512;53.666;9.700;2023-11-22T11:34:46;3.34;91.37
64198;SHT31;50512;53.666;9.700;2023-11-22T11:37:14;3.37;90.80
64198;SHT31;50512;53.666;9.700;2023-11-22T11:39:40;3.33;90.02
64198;SHT31;50512;53.666;9.700;2023-11-22T11:42:08;3.42;90.40
64198;SHT31;50512;53.666;9.700;2023-11-22T11:44:34;3.44;90.01
64198;SHT31;50512;53.666;9.700;2023-11-22T11:47:10;3.50;89.84
64198;SHT31;50512;53.666;9.700;2023-11-22T11:49:37;3.54;90.61
64198;SHT31;50512;53.666;9.700;2023-11-22T11:52:04;3.49;88.96
64198;SHT31;50512;53.666;9.700;2023-11-22T11:54:31;3.54;89.74
64198;SHT31;50512;53.666;9.700;2023-11-22T11:56:58;3.56;87.68
64198;SHT31;50512;53.666;9.700;2023-11-22T11:59:25;3.61;89.22
64198;SHT31;50512;53.666;9.700;2023-11-22T12:01:52;3.57;87.99
64198;SHT31;50512;53.666;9.700;2023-11-22T12:04:22;3.54;87.77
64198;SHT31;50512;53.666;9.700;2023-11-22T12:06:49;3.61;87.91
64198;SHT31;50512;53.666;9.700;2023-11-22T12:09:22;3.63;87.10
64198;SHT31;50512;53.666;9.700;2023-11-22T12:11:49;3.67;88.71
64198;SHT31;50512;53.666;9.700;2023-11-22T12:14:16;3.75;88.10
64198;SHT31;50512;53.666;9.700;2023-11-22T12:16:44;3.77;85.99
64198;SHT31;50512;53.666;9.700;2023-11-22T12:19:22;3.81;85.28
64198;SHT31;50512;53.666;9.700;2023-11-22T12:21:49;3.81;86.95
64198;SHT31;50512;53.666;9.700;2023-11-22T12:24:15;3.82;86.87
64198;SHT31;50512;53.666;9.700;2023-11-22T12:26:44;3.81;86.86
64198;SHT31;50512;53.666;9.700;2023-11-22T12:29:12;3.82;87.65
64198;SHT31;50512;53.666;9.700;2023-11-22T12:31:44;3.84;87.19
64198;SHT31;50512;53.666;9.700;2023-11-22T12:34:12;3.84;88.14
64198;SHT31;50512;53.666;9.700;2023-11-22T12:36:41;3.82;87.60
64198;SHT31;50512;53.666;9.700;2023-11-22T12:39:08;3.77;84.08
64198;SHT31;50512;53.666;9.700;2023-11-22T12:41:41;3.75;85.29
64198;SHT31;50512;53.666;9.700;2023-11-22T12:44:08;3.73;85.85
64198;SHT31;50512;53.666;9.700;2023-11-22T12:46:48;3.75;84.77
64198;SHT31;50512;53.666;9.700;2023-11-22T12:49:22;3.75;87.25
64198;SHT31;50512;53.666;9.700;2023-11-22T12:51:51;3.73;87.28
64198;SHT31;50512;53.666;9.700;2023-11-22T12:54:17;3.69;86.50
64198;SHT31;50512;53.666;9.700;2023-11-22T12:56:47;3.63;84.37
64198;SHT31;50512;53.666;9.700;2023-11-22T12:59:14;3.69;85.55
64198;SHT31;50512;53.666;9.700;2023-11-22T13:01:41;3.63;85.66
64198;SHT31;50512;53.666;9.700;2023-11-22T13:04:08;3.61;85.73
64198;SHT31;50512;53.666;9.700;2023-11-22T13:06:34;3.60;85.96
64198;SHT31;50512;53.666;9.700;2023-11-22T13:09:02;3.60;86.59
64198;SHT31;50512;53.666;9.700;2023-11-22T13:11:29;3.60;85.38
64198;SHT31;50512;53.666;9.700;2023-11-22T13:13:56;3.60;86.97
64198;SHT31;50512;53.666;9.700;2023-11-22T13:16:22;3.60;87.14
64198;SHT31;50512;53.666;9.700;2023-11-22T13:18:49;3.56;85.39
64198;SHT31;50512;53.666;9.700;2023-11-22T13:21:15;3.54;84.81
64198;SHT31;50512;53.666;9.700;2023-11-22T13:23:42;3.52;85.45
64198;SHT31;50512;53.666;9.700;2023-11-22T13:26:09;3.56;84.79
64198;SHT31;50512;53.666;9.700;2023-11-22T13:28:38;3.52;86.25
64198;SHT31;50512;53.666;9.700;2023-11-22T13:31:06;3.47;86.48
64198;SHT31;50512;53.666;9.700;2023-11-22T13:33:33;3.37;87.93
64198;SHT31;50512;53.666;9.700;2023-11-22T13:35:59;3.42;87.10
64198;SHT31;50512;53.666;9.700;2023-11-22T13:38:26;3.43;86.03
64198;SHT31;50512;53.666;9.700;2023-11-22T13:40:52;3.44;87.27
64198;SHT31;50512;53.666;9.700;2023-11-22T13:43:20;3.47;87.07
64198;SHT31;50512;53.666;9.700;2023-11-22T13:45:46;3.44;86.47
64198;SHT31;50512;53.666;9.700;2023-11-22T13:48:13;3.46;86.18
64198;SHT31;50512;53.666;9.700;2023-11-22T13:50:39;3.44;84.54
64198;SHT31;50512;53.666;9.700;2023-11-22T13:53:06;3.40;84.97
64198;SHT31;50512;53.666;9.700;2023-11-22T13:55:35;3.42;85.10
64198;SHT31;50512;53.666;9.700;2023-11-22T13:58:02;3.42;85.34
64198;SHT31;50512;53.666;9.700;2023-11-22T14:00:31;3.37;85.38
64198;SHT31;50512;53.666;9.700;2023-11-22T14:03:01;3.36;85.48
64198;SHT31;50512;53.666;9.700;2023-11-22T14:05:30;3.36;85.26
64198;SHT31;50512;53.666;9.700;2023-11-22T14:07:56;3.32;85.15
64198;SHT31;50512;53.666;9.700;2023-11-22T14:10:23;3.34;84.47
64198;SHT31;50512;53.666;9.700;2023-11-22T14:12:50;3.33;84.67
64198;SHT31;50512;53.666;9.700;2023-11-22T14:15:17;3.33;83.42
64198;SHT31;50512;53.666;9.700;2023-11-22T14:17:46;3.32;83.18
64198;SHT31;50512;53.666;9.700;2023-11-22T14:20:15;3.30;84.68
64198;SHT31;50512;53.666;9.700;2023-11-22T14:22:42;3.33;83.97
64198;SHT31;50512;53.666;9.700;2023-11-22T14:25:09;3.26;84.09
64198;SHT31;50512;53.666;9.700;2023-11-22T14:27:37;3.27;83.12
64198;SHT31;50512;53.666;9.700;2023-11-22T14:30:05;3.26;83.04
64198;SHT31;50512;53.666;9.700;2023-11-22T14:32:33;3.30;81.72
64198;SHT31;50512;53.666;9.700;2023-11-22T14:35:02;3.29;81.68
64198;SHT31;50512;53.666;9.700;2023-11-22T14:37:28;3.27;82.94
64198;SHT31;50512;53.666;9.700;2023-11-22T14:39:55;3.27;82.86
64198;SHT31;50512;53.666;9.700;2023-11-22T14:42:21;3.25;83.52
64198;SHT31;50512;53.666;9.700;2023-11-22T14:44:50;3.18;83.60
64198;SHT31;50512;53.666;9.700;2023-11-22T14:47:17;3.18;83.24
64198;SHT31;50512;53.666;9.700;2023-11-22T14:49:48;3.19;83.90
64198;SHT31;50512;53.666;9.700;2023-11-22T14:52:16;3.22;81.44
64198;SHT31;50512;53.666;9.700;2023-11-22T14:54:42;3.26;81.61
64198;SHT31;50512;53.666;9.700;2023-11-22T14:57:09;3.20;82.25
64198;SHT31;50512;53.666;9.700;2023-11-22T14:59:37;3.23;81.18
64198;SHT31;50512;53.666;9.700;2023-11-22T15:02:04;3.23;80.99
64198;SHT31;50512;53.666;9.700;2023-11-22T15:04:34;3.23;81.36
64198;SHT31;50512;53.666;9.700;2023-11-22T15:07:01;3.19;81.66
64198;SHT31;50512;53.666;9.700;2023-11-22T15:09:29;3.19;81.98
64198;SHT31;50512;53.666;9.700;2023-11-22T15:11:57;3.19;81.25
64198;SHT31;50512;53.666;9.700;2023-11-22T15:14:24;3.16;80.53
64198;SHT31;50512;53.666;9.700;2023-11-22T15:16:51;3.11;81.67
64198;SHT31;50512;53.666;9.700;2023-11-22T15:19:17;3.11;80.86
64198;SHT31;50512;53.666;9.700;2023-11-22T15:21:46;3.08;80.68
64198;SHT31;50512;53.666;9.700;2023-11-22T15:24:13;3.02;81.73
64198;SHT31;50512;53.666;9.700;2023-11-22T15:26:41;3.05;80.65
64198;SHT31;50512;53.666;9.700;2023-11-22T15:29:07;3.05;80.27
64198;SHT31;50512;53.666;9.700;2023-11-22T15:31:33;3.06;81.98
64198;SHT31;50512;53.666;9.700;2023-11-22T15:34:00;3.04;79.55
64198;SHT31;50512;53.666;9.700;2023-11-22T15:36:27;2.99;79.52
64198;SHT31;50512;53.666;9.700;2023-11-22T15:38:54;2.98;80.46
64198;SHT31;50512;53.666;9.700;2023-11-22T15:41:20;3.01;79.38
64198;SHT31;50512;53.666;9.700;2023-11-22T15:43:48;2.97;79.79